sensor_id;sensor_type;location;lat;lon;timestamp;P1;durP1;ratioP1;P2;durP2;ratioP2
81026;SDS011;70506;49.320;8.446;2023-07-22T00:00:07;3.17;;;1.70;;
81026;SDS011;70506;49.320;8.446;2023-07-22T00:02:37;2.90;;;1.60;;
81026;SDS011;70506;49.320;8.446;2023-07-22T00:07:29;1.90;;;1.45;;
81026;SDS011;70506;49.320;8.446;2023-07-22T00:09:54;2.77;;;1.40;;
81026;SDS011;70506;49.320;8.446;2023-07-22T00:14:44;2.33;;;1.30;;
81026;SDS011;70506;49.320;8.446;2023-07-22T00:19:35;2.53;;;1.70;;
81026;SDS011;70506;49.320;8.446;2023-07-22T00:24:26;3.30;;;1.70;;
81026;SDS011;70506;49.320;8.446;2023-07-22T00:26:51;2.63;;;1.80;;
81026;SDS011;70506;49.320;8.446;2023-07-22T00:31:43;6.00;;;1.60;;
81026;SDS011;70506;49.320;8.446;2023-07-22T00:34:08;2.58;;;1.60;;
81026;SDS011;70506;49.320;8.446;2023-07-22T00:38:59;2.47;;;1.50;;
81026;SDS011;70506;49.320;8.446;2023-07-22T00:41:26;3.88;;;1.80;;
81026;SDS011;70506;49.320;8.446;2023-07-22T00:46:16;4.13;;;1.90;;
81026;SDS011;70506;49.320;8.446;2023-07-22T00:51:07;3.07;;;1.43;;
81026;SDS011;70506;49.320;8.446;2023-07-22T00:55:57;3.13;;;1.80;;
81026;SDS011;70506;49.320;8.446;2023-07-22T01:00:48;3.10;;;1.70;;
81026;SDS011;70506;49.320;8.446;2023-07-22T01:05:39;2.53;;;1.80;;
81026;SDS011;70506;49.320;8.446;2023-07-22T01:10:30;4.57;;;1.58;;
81026;SDS011;70506;49.320;8.446;2023-07-22T01:15:21;2.90;;;1.70;;
81026;SDS011;70506;49.320;8.446;2023-07-22T01:17:47;2.65;;;1.70;;
81026;SDS011;70506;49.320;8.446;2023-07-22T01:22:37;3.00;;;1.50;;
81026;SDS011;70506;49.320;8.446;2023-07-22T01:27:28;3.22;;;1.48;;
81026;SDS011;70506;49.320;8.446;2023-07-22T01:32:19;3.17;;;1.63;;
81026;SDS011;70506;49.320;8.446;2023-07-22T01:34:47;2.80;;;1.90;;
81026;SDS011;70506;49.320;8.446;2023-07-22T01:39:38;3.87;;;1.60;;
81026;SDS011;70506;49.320;8.446;2023-07-22T01:44:29;2.83;;;1.63;;
81026;SDS011;70506;49.320;8.446;2023-07-22T01:46:54;4.60;;;1.90;;
81026;SDS011;70506;49.320;8.446;2023-07-22T01:49:20;4.82;;;1.67;;
81026;SDS011;70506;49.320;8.446;2023-07-22T01:51:45;6.20;;;1.92;;
81026;SDS011;70506;49.320;8.446;2023-07-22T01:54:11;7.70;;;2.25;;
81026;SDS011;70506;49.320;8.446;2023-07-22T01:56:37;3.58;;;2.03;;
81026;SDS011;70506;49.320;8.446;2023-07-22T01:59:03;4.15;;;2.00;;
81026;SDS011;70506;49.320;8.446;2023-07-22T02:03:54;4.80;;;1.80;;
81026;SDS011;70506;49.320;8.446;2023-07-22T02:06:20;4.72;;;1.92;;
81026;SDS011;70506;49.320;8.446;2023-07-22T02:11:11;6.30;;;2.00;;
81026;SDS011;70506;49.320;8.446;2023-07-22T02:16:03;3.50;;;2.00;;
81026;SDS011;70506;49.320;8.446;2023-07-22T02:20:54;3.78;;;2.20;;
81026;SDS011;70506;49.320;8.446;2023-07-22T02:25:49;4.07;;;1.95;;
81026;SDS011;70506;49.320;8.446;2023-07-22T02:28:14;4.35;;;1.92;;
81026;SDS011;70506;49.320;8.446;2023-07-22T02:33:06;3.17;;;2.00;;
81026;SDS011;70506;49.320;8.446;2023-07-22T02:35:33;2.83;;;2.00;;
81026;SDS011;70506;49.320;8.446;2023-07-22T02:40:24;4.97;;;2.20;;
81026;SDS011;70506;49.320;8.446;2023-07-22T02:45:14;3.80;;;1.93;;
81026;SDS011;70506;49.320;8.446;2023-07-22T02:47:39;4.55;;;2.05;;
81026;SDS011;70506;49.320;8.446;2023-07-22T02:50:06;3.63;;;2.13;;
81026;SDS011;70506;49.320;8.446;2023-07-22T02:52:31;3.90;;;2.00;;
81026;SDS011;70506;49.320;8.446;2023-07-22T02:57:29;7.53;;;2.42;;
81026;SDS011;70506;49.320;8.446;2023-07-22T03:02:19;5.00;;;2.50;;
81026;SDS011;70506;49.320;8.446;2023-07-22T03:07:10;3.73;;;2.50;;
81026;SDS011;70506;49.320;8.446;2023-07-22T03:09:35;4.60;;;2.87;;
81026;SDS011;70506;49.320;8.446;2023-07-22T03:12:00;4.60;;;2.67;;
81026;SDS011;70506;49.320;8.446;2023-07-22T03:16:51;3.67;;;2.53;;
81026;SDS011;70506;49.320;8.446;2023-07-22T03:21:42;3.93;;;2.60;;
81026;SDS011;70506;49.320;8.446;2023-07-22T03:26:33;3.78;;;2.60;;
81026;SDS011;70506;49.320;8.446;2023-07-22T03:28:58;4.27;;;2.60;;
81026;SDS011;70506;49.320;8.446;2023-07-22T03:33:49;5.90;;;2.70;;
81026;SDS011;70506;49.320;8.446;2023-07-22T03:38:41;5.00;;;2.78;;
81026;SDS011;70506;49.320;8.446;2023-07-22T03:43:31;5.17;;;2.80;;
81026;SDS011;70506;49.320;8.446;2023-07-22T03:48:22;3.20;;;2.42;;
81026;SDS011;70506;49.320;8.446;2023-07-22T03:53:12;5.07;;;2.33;;
81026;SDS011;70506;49.320;8.446;2023-07-22T03:58:03;6.07;;;2.83;;
81026;SDS011;70506;49.320;8.446;2023-07-22T04:02:54;6.20;;;2.50;;
81026;SDS011;70506;49.320;8.446;2023-07-22T04:07:44;8.03;;;2.80;;
81026;SDS011;70506;49.320;8.446;2023-07-22T04:12:35;3.77;;;2.70;;
81026;SDS011;70506;49.320;8.446;2023-07-22T04:15:00;5.40;;;2.33;;
81026;SDS011;70506;49.320;8.446;2023-07-22T04:19:51;3.83;;;2.47;;
81026;SDS011;70506;49.320;8.446;2023-07-22T04:24:42;5.17;;;2.90;;
81026;SDS011;70506;49.320;8.446;2023-07-22T04:29:34;4.07;;;2.60;;
81026;SDS011;70506;49.320;8.446;2023-07-22T04:32:00;3.22;;;2.25;;
81026;SDS011;70506;49.320;8.446;2023-07-22T04:34:30;3.65;;;2.30;;
81026;SDS011;70506;49.320;8.446;2023-07-22T04:36:56;4.95;;;2.78;;
81026;SDS011;70506;49.320;8.446;2023-07-22T04:41:46;7.50;;;4.63;;
81026;SDS011;70506;49.320;8.446;2023-07-22T04:46:37;3.57;;;2.20;;
81026;SDS011;70506;49.320;8.446;2023-07-22T04:51:27;4.20;;;2.60;;
81026;SDS011;70506;49.320;8.446;2023-07-22T04:56:18;4.70;;;2.33;;
81026;SDS011;70506;49.320;8.446;2023-07-22T05:01:08;3.70;;;2.53;;
81026;SDS011;70506;49.320;8.446;2023-07-22T05:05:59;8.23;;;2.20;;
81026;SDS011;70506;49.320;8.446;2023-07-22T05:10:50;4.77;;;2.80;;
81026;SDS011;70506;49.320;8.446;2023-07-22T05:15:41;6.53;;;2.53;;
81026;SDS011;70506;49.320;8.446;2023-07-22T05:20:32;6.00;;;3.00;;
81026;SDS011;70506;49.320;8.446;2023-07-22T05:25:22;4.63;;;2.30;;
81026;SDS011;70506;49.320;8.446;2023-07-22T05:27:49;4.68;;;2.65;;
81026;SDS011;70506;49.320;8.446;2023-07-22T05:30:14;3.75;;;2.70;;
81026;SDS011;70506;49.320;8.446;2023-07-22T05:35:05;3.67;;;2.30;;
81026;SDS011;70506;49.320;8.446;2023-07-22T05:39:56;7.05;;;2.40;;
81026;SDS011;70506;49.320;8.446;2023-07-22T05:44:47;3.47;;;2.03;;
81026;SDS011;70506;49.320;8.446;2023-07-22T05:47:13;3.88;;;2.25;;
81026;SDS011;70506;49.320;8.446;2023-07-22T05:52:03;3.87;;;2.40;;
81026;SDS011;70506;49.320;8.446;2023-07-22T05:56:54;4.40;;;2.30;;
81026;SDS011;70506;49.320;8.446;2023-07-22T06:01:45;5.53;;;2.60;;
81026;SDS011;70506;49.320;8.446;2023-07-22T06:06:35;5.20;;;2.20;;
81026;SDS011;70506;49.320;8.446;2023-07-22T06:11:26;4.40;;;2.65;;
81026;SDS011;70506;49.320;8.446;2023-07-22T06:16:17;5.40;;;2.87;;
81026;SDS011;70506;49.320;8.446;2023-07-22T06:21:08;3.53;;;2.50;;
81026;SDS011;70506;49.320;8.446;2023-07-22T06:25:58;5.60;;;2.70;;
81026;SDS011;70506;49.320;8.446;2023-07-22T06:30:49;3.93;;;2.33;;
81026;SDS011;70506;49.320;8.446;2023-07-22T06:35:39;4.90;;;2.50;;
81026;SDS011;70506;49.320;8.446;2023-07-22T06:38:04;5.40;;;2.53;;
81026;SDS011;70506;49.320;8.446;2023-07-22T06:40:30;4.43;;;2.30;;
81026;SDS011;70506;49.320;8.446;2023-07-22T06:45:21;7.23;;;2.23;;
81026;SDS011;70506;49.320;8.446;2023-07-22T06:50:11;5.85;;;2.65;;
81026;SDS011;70506;49.320;8.446;2023-07-22T06:52:37;4.20;;;2.33;;
81026;SDS011;70506;49.320;8.446;2023-07-22T06:55:02;4.53;;;2.57;;
81026;SDS011;70506;49.320;8.446;2023-07-22T06:59:54;4.68;;;2.25;;
81026;SDS011;70506;49.320;8.446;2023-07-22T07:04:44;3.37;;;2.23;;
81026;SDS011;70506;49.320;8.446;2023-07-22T07:07:10;5.00;;;2.30;;
81026;SDS011;70506;49.320;8.446;2023-07-22T07:09:37;3.90;;;2.25;;
81026;SDS011;70506;49.320;8.446;2023-07-22T07:12:03;6.70;;;2.28;;
81026;SDS011;70506;49.320;8.446;2023-07-22T07:14:28;3.95;;;1.80;;
81026;SDS011;70506;49.320;8.446;2023-07-22T07:19:19;4.20;;;2.10;;
81026;SDS011;70506;49.320;8.446;2023-07-22T07:21:44;4.03;;;1.97;;
81026;SDS011;70506;49.320;8.446;2023-07-22T07:24:09;5.33;;;2.20;;
81026;SDS011;70506;49.320;8.446;2023-07-22T07:26:34;4.50;;;2.10;;
81026;SDS011;70506;49.320;8.446;2023-07-22T07:31:25;3.50;;;1.80;;
81026;SDS011;70506;49.320;8.446;2023-07-22T07:33:50;2.92;;;1.77;;
81026;SDS011;70506;49.320;8.446;2023-07-22T07:36:16;4.22;;;1.80;;
81026;SDS011;70506;49.320;8.446;2023-07-22T07:38:41;3.22;;;1.92;;
81026;SDS011;70506;49.320;8.446;2023-07-22T07:41:07;3.33;;;1.73;;
81026;SDS011;70506;49.320;8.446;2023-07-22T07:43:36;4.30;;;1.90;;
81026;SDS011;70506;49.320;8.446;2023-07-22T07:48:58;3.28;;;1.67;;
81026;SDS011;70506;49.320;8.446;2023-07-22T07:51:25;2.90;;;1.73;;
81026;SDS011;70506;49.320;8.446;2023-07-22T07:53:52;4.45;;;1.67;;
81026;SDS011;70506;49.320;8.446;2023-07-22T07:56:18;3.58;;;1.50;;
81026;SDS011;70506;49.320;8.446;2023-07-22T07:58:44;3.25;;;1.52;;
81026;SDS011;70506;49.320;8.446;2023-07-22T08:01:10;3.30;;;1.50;;
81026;SDS011;70506;49.320;8.446;2023-07-22T08:03:36;3.00;;;1.60;;
81026;SDS011;70506;49.320;8.446;2023-07-22T08:06:02;3.00;;;1.30;;
81026;SDS011;70506;49.320;8.446;2023-07-22T08:08:28;2.78;;;1.35;;
81026;SDS011;70506;49.320;8.446;2023-07-22T08:10:57;2.92;;;1.60;;
81026;SDS011;70506;49.320;8.446;2023-07-22T08:13:26;3.92;;;1.58;;
81026;SDS011;70506;49.320;8.446;2023-07-22T08:15:52;4.60;;;1.55;;
81026;SDS011;70506;49.320;8.446;2023-07-22T08:18:18;2.97;;;1.50;;
81026;SDS011;70506;49.320;8.446;2023-07-22T08:20:43;5.27;;;1.97;;
81026;SDS011;70506;49.320;8.446;2023-07-22T08:23:08;4.03;;;2.00;;
81026;SDS011;70506;49.320;8.446;2023-07-22T08:25:34;3.80;;;1.70;;
81026;SDS011;70506;49.320;8.446;2023-07-22T08:27:59;4.50;;;1.90;;
81026;SDS011;70506;49.320;8.446;2023-07-22T08:30:24;3.77;;;1.83;;
81026;SDS011;70506;49.320;8.446;2023-07-22T08:32:50;5.82;;;2.78;;
81026;SDS011;70506;49.320;8.446;2023-07-22T08:35:16;4.03;;;1.63;;
81026;SDS011;70506;49.320;8.446;2023-07-22T08:37:42;3.58;;;1.52;;
81026;SDS011;70506;49.320;8.446;2023-07-22T08:40:08;3.10;;;1.60;;
81026;SDS011;70506;49.320;8.446;2023-07-22T08:42:33;5.32;;;1.92;;
81026;SDS011;70506;49.320;8.446;2023-07-22T08:45:00;7.15;;;1.90;;
81026;SDS011;70506;49.320;8.446;2023-07-22T08:47:26;3.65;;;1.98;;
81026;SDS011;70506;49.320;8.446;2023-07-22T08:49:55;4.13;;;1.70;;
81026;SDS011;70506;49.320;8.446;2023-07-22T08:52:22;4.03;;;1.58;;
81026;SDS011;70506;49.320;8.446;2023-07-22T08:54:48;4.07;;;1.98;;
81026;SDS011;70506;49.320;8.446;2023-07-22T08:57:14;3.45;;;1.92;;
81026;SDS011;70506;49.320;8.446;2023-07-22T08:59:40;4.85;;;1.70;;
81026;SDS011;70506;49.320;8.446;2023-07-22T09:02:06;2.45;;;1.40;;
81026;SDS011;70506;49.320;8.446;2023-07-22T09:04:35;3.42;;;1.70;;
81026;SDS011;70506;49.320;8.446;2023-07-22T09:07:01;3.70;;;1.85;;
81026;SDS011;70506;49.320;8.446;2023-07-22T09:09:26;4.43;;;1.67;;
81026;SDS011;70506;49.320;8.446;2023-07-22T09:11:52;3.88;;;1.70;;
81026;SDS011;70506;49.320;8.446;2023-07-22T09:14:18;3.47;;;1.58;;
81026;SDS011;70506;49.320;8.446;2023-07-22T09:16:44;2.88;;;1.45;;
81026;SDS011;70506;49.320;8.446;2023-07-22T09:19:09;5.63;;;1.67;;
81026;SDS011;70506;49.320;8.446;2023-07-22T09:21:34;2.90;;;1.60;;
81026;SDS011;70506;49.320;8.446;2023-07-22T09:24:00;2.92;;;1.55;;
81026;SDS011;70506;49.320;8.446;2023-07-22T09:26:26;3.10;;;1.50;;
81026;SDS011;70506;49.320;8.446;2023-07-22T09:28:52;4.83;;;1.53;;
81026;SDS011;70506;49.320;8.446;2023-07-22T09:31:23;4.07;;;1.95;;
81026;SDS011;70506;49.320;8.446;2023-07-22T09:33:49;4.13;;;1.60;;
81026;SDS011;70506;49.320;8.446;2023-07-22T09:36:15;2.63;;;1.65;;
81026;SDS011;70506;49.320;8.446;2023-07-22T09:38:41;3.50;;;1.80;;
81026;SDS011;70506;49.320;8.446;2023-07-22T09:41:06;5.13;;;1.77;;
81026;SDS011;70506;49.320;8.446;2023-07-22T09:43:35;3.25;;;1.85;;
81026;SDS011;70506;49.320;8.446;2023-07-22T09:46:20;4.32;;;1.60;;
81026;SDS011;70506;49.320;8.446;2023-07-22T09:48:45;2.58;;;1.50;;
81026;SDS011;70506;49.320;8.446;2023-07-22T09:51:11;3.75;;;1.85;;
81026;SDS011;70506;49.320;8.446;2023-07-22T09:53:47;5.80;;;1.80;;
81026;SDS011;70506;49.320;8.446;2023-07-22T09:56:26;8.52;;;1.67;;
81026;SDS011;70506;49.320;8.446;2023-07-22T09:58:51;2.25;;;1.25;;
81026;SDS011;70506;49.320;8.446;2023-07-22T10:01:20;3.05;;;1.67;;
81026;SDS011;70506;49.320;8.446;2023-07-22T10:03:49;3.13;;;1.30;;
81026;SDS011;70506;49.320;8.446;2023-07-22T10:08:46;2.25;;;1.60;;
81026;SDS011;70506;49.320;8.446;2023-07-22T10:11:13;4.35;;;1.40;;
81026;SDS011;70506;49.320;8.446;2023-07-22T10:13:39;2.10;;;1.20;;
81026;SDS011;70506;49.320;8.446;2023-07-22T10:16:05;7.57;;;1.80;;
81026;SDS011;70506;49.320;8.446;2023-07-22T10:18:30;3.05;;;1.30;;
81026;SDS011;70506;49.320;8.446;2023-07-22T10:20:57;4.60;;;1.40;;
81026;SDS011;70506;49.320;8.446;2023-07-22T10:23:23;4.03;;;1.42;;
81026;SDS011;70506;49.320;8.446;2023-07-22T10:25:50;2.10;;;1.30;;
81026;SDS011;70506;49.320;8.446;2023-07-22T10:28:18;4.65;;;1.70;;
81026;SDS011;70506;49.320;8.446;2023-07-22T10:30:44;3.13;;;1.30;;
81026;SDS011;70506;49.320;8.446;2023-07-22T10:33:10;2.55;;;1.40;;
81026;SDS011;70506;49.320;8.446;2023-07-22T10:35:42;3.25;;;1.70;;
81026;SDS011;70506;49.320;8.446;2023-07-22T10:38:15;3.00;;;1.60;;
81026;SDS011;70506;49.320;8.446;2023-07-22T10:40:51;4.97;;;1.40;;
81026;SDS011;70506;49.320;8.446;2023-07-22T10:43:18;5.13;;;1.77;;
81026;SDS011;70506;49.320;8.446;2023-07-22T10:45:50;4.32;;;1.63;;
81026;SDS011;70506;49.320;8.446;2023-07-22T10:48:16;3.30;;;1.60;;
81026;SDS011;70506;49.320;8.446;2023-07-22T10:50:43;2.33;;;1.13;;
81026;SDS011;70506;49.320;8.446;2023-07-22T11:04:10;2.85;;;1.30;;
81026;SDS011;70506;49.320;8.446;2023-07-22T11:12:03;3.33;;;1.38;;
81026;SDS011;70506;49.320;8.446;2023-07-22T11:14:37;4.00;;;1.20;;
81026;SDS011;70506;49.320;8.446;2023-07-22T11:17:04;9.57;;;1.75;;
81026;SDS011;70506;49.320;8.446;2023-07-22T11:19:30;3.30;;;1.45;;
81026;SDS011;70506;49.320;8.446;2023-07-22T11:21:56;2.67;;;1.40;;
81026;SDS011;70506;49.320;8.446;2023-07-22T11:24:22;4.10;;;1.70;;
81026;SDS011;70506;49.320;8.446;2023-07-22T11:26:48;4.25;;;1.20;;
81026;SDS011;70506;49.320;8.446;2023-07-22T11:29:15;3.40;;;1.48;;
81026;SDS011;70506;49.320;8.446;2023-07-22T11:31:44;3.97;;;1.27;;
81026;SDS011;70506;49.320;8.446;2023-07-22T11:34:14;2.97;;;1.50;;
81026;SDS011;70506;49.320;8.446;2023-07-22T11:36:40;3.03;;;1.55;;
81026;SDS011;70506;49.320;8.446;2023-07-22T11:39:07;3.17;;;1.13;;
81026;SDS011;70506;49.320;8.446;2023-07-22T11:41:33;3.72;;;1.48;;
81026;SDS011;70506;49.320;8.446;2023-07-22T11:43:59;3.88;;;1.70;;
81026;SDS011;70506;49.320;8.446;2023-07-22T11:46:26;1.65;;;1.10;;
81026;SDS011;70506;49.320;8.446;2023-07-22T11:48:52;2.63;;;1.40;;
81026;SDS011;70506;49.320;8.446;2023-07-22T11:51:22;4.28;;;1.30;;
81026;SDS011;70506;49.320;8.446;2023-07-22T11:53:49;2.40;;;1.20;;
81026;SDS011;70506;49.320;8.446;2023-07-22T11:56:22;2.25;;;1.23;;
81026;SDS011;70506;49.320;8.446;2023-07-22T11:58:48;2.38;;;1.20;;
81026;SDS011;70506;49.320;8.446;2023-07-22T12:01:15;2.67;;;1.48;;
81026;SDS011;70506;49.320;8.446;2023-07-22T12:03:41;4.47;;;1.50;;
81026;SDS011;70506;49.320;8.446;2023-07-22T12:06:06;4.20;;;1.50;;
81026;SDS011;70506;49.320;8.446;2023-07-22T12:08:32;2.08;;;1.30;;
81026;SDS011;70506;49.320;8.446;2023-07-22T12:10:58;2.55;;;1.33;;
81026;SDS011;70506;49.320;8.446;2023-07-22T12:13:24;2.38;;;1.33;;
81026;SDS011;70506;49.320;8.446;2023-07-22T12:15:59;5.05;;;1.52;;
81026;SDS011;70506;49.320;8.446;2023-07-22T12:18:25;4.40;;;1.60;;
81026;SDS011;70506;49.320;8.446;2023-07-22T12:20:50;3.73;;;1.40;;
81026;SDS011;70506;49.320;8.446;2023-07-22T12:23:16;4.03;;;1.40;;
81026;SDS011;70506;49.320;8.446;2023-07-22T12:25:41;2.70;;;1.33;;
81026;SDS011;70506;49.320;8.446;2023-07-22T12:28:06;2.10;;;1.50;;
81026;SDS011;70506;49.320;8.446;2023-07-22T12:30:32;4.00;;;1.38;;
81026;SDS011;70506;49.320;8.446;2023-07-22T12:32:58;3.58;;;1.60;;
81026;SDS011;70506;49.320;8.446;2023-07-22T12:35:23;6.07;;;1.30;;
81026;SDS011;70506;49.320;8.446;2023-07-22T12:37:48;3.58;;;1.55;;
81026;SDS011;70506;49.320;8.446;2023-07-22T12:40:14;2.37;;;1.50;;
81026;SDS011;70506;49.320;8.446;2023-07-22T12:42:39;3.80;;;1.48;;
81026;SDS011;70506;49.320;8.446;2023-07-22T12:45:05;3.25;;;1.60;;
81026;SDS011;70506;49.320;8.446;2023-07-22T12:47:31;3.10;;;1.60;;
81026;SDS011;70506;49.320;8.446;2023-07-22T12:49:57;3.65;;;1.73;;
81026;SDS011;70506;49.320;8.446;2023-07-22T12:52:22;3.17;;;1.52;;
81026;SDS011;70506;49.320;8.446;2023-07-22T12:54:47;3.60;;;1.63;;
81026;SDS011;70506;49.320;8.446;2023-07-22T12:57:13;2.97;;;1.77;;
81026;SDS011;70506;49.320;8.446;2023-07-22T12:59:38;2.97;;;1.50;;
81026;SDS011;70506;49.320;8.446;2023-07-22T13:02:03;2.53;;;1.63;;
81026;SDS011;70506;49.320;8.446;2023-07-22T13:04:29;2.83;;;1.60;;
81026;SDS011;70506;49.320;8.446;2023-07-22T13:06:54;3.07;;;1.60;;
81026;SDS011;70506;49.320;8.446;2023-07-22T13:09:20;1.77;;;1.10;;
81026;SDS011;70506;49.320;8.446;2023-07-22T13:11:45;3.92;;;1.50;;
81026;SDS011;70506;49.320;8.446;2023-07-22T13:14:11;7.28;;;1.80;;
81026;SDS011;70506;49.320;8.446;2023-07-22T13:16:36;3.03;;;1.77;;
81026;SDS011;70506;49.320;8.446;2023-07-22T13:19:01;3.83;;;1.80;;
81026;SDS011;70506;49.320;8.446;2023-07-22T13:21:28;6.28;;;1.58;;
81026;SDS011;70506;49.320;8.446;2023-07-22T13:23:54;3.53;;;1.90;;
81026;SDS011;70506;49.320;8.446;2023-07-22T13:26:19;3.07;;;1.57;;
81026;SDS011;70506;49.320;8.446;2023-07-22T13:28:45;2.97;;;1.73;;
81026;SDS011;70506;49.320;8.446;2023-07-22T13:31:10;3.47;;;1.77;;
81026;SDS011;70506;49.320;8.446;2023-07-22T13:33:36;2.97;;;1.60;;
81026;SDS011;70506;49.320;8.446;2023-07-22T13:36:01;2.80;;;1.70;;
81026;SDS011;70506;49.320;8.446;2023-07-22T13:38:26;3.73;;;2.00;;
81026;SDS011;70506;49.320;8.446;2023-07-22T13:40:52;5.15;;;2.05;;
81026;SDS011;70506;49.320;8.446;2023-07-22T13:43:17;3.23;;;1.80;;
81026;SDS011;70506;49.320;8.446;2023-07-22T13:45:42;3.37;;;1.80;;
81026;SDS011;70506;49.320;8.446;2023-07-22T13:48:08;3.37;;;1.80;;
81026;SDS011;70506;49.320;8.446;2023-07-22T13:50:33;3.73;;;1.80;;
81026;SDS011;70506;49.320;8.446;2023-07-22T13:52:58;4.03;;;1.80;;
81026;SDS011;70506;49.320;8.446;2023-07-22T13:55:23;5.63;;;1.70;;
81026;SDS011;70506;49.320;8.446;2023-07-22T13:57:49;3.83;;;1.60;;
81026;SDS011;70506;49.320;8.446;2023-07-22T14:00:14;4.23;;;1.50;;
81026;SDS011;70506;49.320;8.446;2023-07-22T14:02:40;2.70;;;1.58;;
81026;SDS011;70506;49.320;8.446;2023-07-22T14:05:06;5.43;;;1.90;;
81026;SDS011;70506;49.320;8.446;2023-07-22T14:07:32;3.75;;;2.17;;
81026;SDS011;70506;49.320;8.446;2023-07-22T14:09:57;3.25;;;1.70;;
81026;SDS011;70506;49.320;8.446;2023-07-22T14:12:23;2.65;;;1.75;;
81026;SDS011;70506;49.320;8.446;2023-07-22T14:14:48;3.10;;;1.57;;
81026;SDS011;70506;49.320;8.446;2023-07-22T14:17:13;2.55;;;1.77;;
81026;SDS011;70506;49.320;8.446;2023-07-22T14:19:39;4.00;;;1.70;;
81026;SDS011;70506;49.320;8.446;2023-07-22T14:22:04;2.67;;;1.53;;
81026;SDS011;70506;49.320;8.446;2023-07-22T14:24:30;3.10;;;1.80;;
81026;SDS011;70506;49.320;8.446;2023-07-22T14:26:55;3.80;;;1.80;;
81026;SDS011;70506;49.320;8.446;2023-07-22T14:29:20;2.58;;;1.48;;
81026;SDS011;70506;49.320;8.446;2023-07-22T14:31:46;4.70;;;1.88;;
81026;SDS011;70506;49.320;8.446;2023-07-22T14:34:12;3.38;;;2.00;;
81026;SDS011;70506;49.320;8.446;2023-07-22T14:36:37;3.23;;;1.60;;
81026;SDS011;70506;49.320;8.446;2023-07-22T14:39:02;5.18;;;2.10;;
81026;SDS011;70506;49.320;8.446;2023-07-22T14:41:28;3.75;;;1.80;;
81026;SDS011;70506;49.320;8.446;2023-07-22T14:43:54;3.95;;;1.60;;
81026;SDS011;70506;49.320;8.446;2023-07-22T14:46:20;6.03;;;1.87;;
81026;SDS011;70506;49.320;8.446;2023-07-22T14:48:45;3.47;;;1.87;;
81026;SDS011;70506;49.320;8.446;2023-07-22T14:51:10;3.63;;;1.97;;
81026;SDS011;70506;49.320;8.446;2023-07-22T14:53:36;4.55;;;1.77;;
81026;SDS011;70506;49.320;8.446;2023-07-22T14:56:01;2.93;;;1.90;;
81026;SDS011;70506;49.320;8.446;2023-07-22T14:58:26;4.57;;;1.98;;
81026;SDS011;70506;49.320;8.446;2023-07-22T15:00:52;3.63;;;2.10;;
81026;SDS011;70506;49.320;8.446;2023-07-22T15:03:17;3.45;;;2.00;;
81026;SDS011;70506;49.320;8.446;2023-07-22T15:05:42;3.00;;;1.70;;
81026;SDS011;70506;49.320;8.446;2023-07-22T15:08:08;4.93;;;1.83;;
81026;SDS011;70506;49.320;8.446;2023-07-22T15:10:34;4.43;;;2.20;;
81026;SDS011;70506;49.320;8.446;2023-07-22T15:12:59;3.70;;;2.10;;
81026;SDS011;70506;49.320;8.446;2023-07-22T15:15:24;4.40;;;2.10;;
81026;SDS011;70506;49.320;8.446;2023-07-22T15:17:49;3.40;;;2.00;;
81026;SDS011;70506;49.320;8.446;2023-07-22T15:20:15;4.15;;;2.00;;
81026;SDS011;70506;49.320;8.446;2023-07-22T15:22:40;3.05;;;1.90;;
81026;SDS011;70506;49.320;8.446;2023-07-22T15:25:05;8.10;;;2.23;;
81026;SDS011;70506;49.320;8.446;2023-07-22T15:27:31;3.78;;;2.30;;
81026;SDS011;70506;49.320;8.446;2023-07-22T15:29:56;4.50;;;1.92;;
81026;SDS011;70506;49.320;8.446;2023-07-22T15:32:22;4.33;;;2.13;;
81026;SDS011;70506;49.320;8.446;2023-07-22T15:34:47;4.00;;;2.20;;
81026;SDS011;70506;49.320;8.446;2023-07-22T15:37:12;3.80;;;2.30;;
81026;SDS011;70506;49.320;8.446;2023-07-22T15:39:38;4.18;;;1.90;;
81026;SDS011;70506;49.320;8.446;2023-07-22T15:42:03;5.37;;;2.37;;
81026;SDS011;70506;49.320;8.446;2023-07-22T15:44:28;5.75;;;2.20;;
81026;SDS011;70506;49.320;8.446;2023-07-22T15:46:54;4.83;;;2.00;;
81026;SDS011;70506;49.320;8.446;2023-07-22T15:49:19;4.20;;;2.05;;
81026;SDS011;70506;49.320;8.446;2023-07-22T15:51:45;6.47;;;2.22;;
81026;SDS011;70506;49.320;8.446;2023-07-22T15:54:10;4.40;;;2.20;;
81026;SDS011;70506;49.320;8.446;2023-07-22T15:56:35;4.40;;;2.33;;
81026;SDS011;70506;49.320;8.446;2023-07-22T15:59:02;5.93;;;2.53;;
81026;SDS011;70506;49.320;8.446;2023-07-22T16:01:27;4.00;;;2.10;;
81026;SDS011;70506;49.320;8.446;2023-07-22T16:03:54;7.03;;;2.53;;
81026;SDS011;70506;49.320;8.446;2023-07-22T16:06:19;3.47;;;2.33;;
81026;SDS011;70506;49.320;8.446;2023-07-22T16:08:44;6.37;;;2.40;;
81026;SDS011;70506;49.320;8.446;2023-07-22T16:11:10;3.73;;;1.90;;
81026;SDS011;70506;49.320;8.446;2023-07-22T16:13:35;5.40;;;2.33;;
81026;SDS011;70506;49.320;8.446;2023-07-22T16:16:00;4.32;;;2.40;;
81026;SDS011;70506;49.320;8.446;2023-07-22T16:18:26;4.03;;;2.40;;
81026;SDS011;70506;49.320;8.446;2023-07-22T16:20:51;3.83;;;2.20;;
81026;SDS011;70506;49.320;8.446;2023-07-22T16:23:16;5.20;;;2.33;;
81026;SDS011;70506;49.320;8.446;2023-07-22T16:25:42;4.22;;;2.67;;
81026;SDS011;70506;49.320;8.446;2023-07-22T16:28:07;6.28;;;2.53;;
81026;SDS011;70506;49.320;8.446;2023-07-22T16:30:33;4.23;;;2.17;;
81026;SDS011;70506;49.320;8.446;2023-07-22T16:32:58;4.53;;;2.17;;
81026;SDS011;70506;49.320;8.446;2023-07-22T16:35:23;4.00;;;2.37;;
81026;SDS011;70506;49.320;8.446;2023-07-22T16:37:48;3.28;;;2.30;;
81026;SDS011;70506;49.320;8.446;2023-07-22T16:40:14;3.93;;;2.27;;
81026;SDS011;70506;49.320;8.446;2023-07-22T16:42:39;5.07;;;2.30;;
81026;SDS011;70506;49.320;8.446;2023-07-22T16:45:05;5.72;;;2.75;;
81026;SDS011;70506;49.320;8.446;2023-07-22T16:47:32;4.55;;;2.33;;
81026;SDS011;70506;49.320;8.446;2023-07-22T16:49:58;4.15;;;2.22;;
81026;SDS011;70506;49.320;8.446;2023-07-22T16:52:23;7.00;;;2.70;;
81026;SDS011;70506;49.320;8.446;2023-07-22T16:54:48;4.57;;;2.40;;
81026;SDS011;70506;49.320;8.446;2023-07-22T16:57:14;4.90;;;2.40;;
81026;SDS011;70506;49.320;8.446;2023-07-22T16:59:39;4.87;;;2.10;;
81026;SDS011;70506;49.320;8.446;2023-07-22T17:02:05;4.70;;;2.42;;
81026;SDS011;70506;49.320;8.446;2023-07-22T17:04:30;2.78;;;1.80;;
81026;SDS011;70506;49.320;8.446;2023-07-22T17:06:55;3.42;;;2.22;;
81026;SDS011;70506;49.320;8.446;2023-07-22T17:09:21;4.93;;;2.30;;
81026;SDS011;70506;49.320;8.446;2023-07-22T17:11:48;3.70;;;2.22;;
81026;SDS011;70506;49.320;8.446;2023-07-22T17:14:13;4.82;;;2.58;;
81026;SDS011;70506;49.320;8.446;2023-07-22T17:16:38;4.38;;;2.10;;
81026;SDS011;70506;49.320;8.446;2023-07-22T17:19:04;4.53;;;2.80;;
81026;SDS011;70506;49.320;8.446;2023-07-22T17:21:29;6.80;;;2.50;;
81026;SDS011;70506;49.320;8.446;2023-07-22T17:23:55;6.13;;;2.63;;
81026;SDS011;70506;49.320;8.446;2023-07-22T17:26:20;3.67;;;2.07;;
81026;SDS011;70506;49.320;8.446;2023-07-22T17:28:45;6.60;;;2.50;;
81026;SDS011;70506;49.320;8.446;2023-07-22T17:31:11;5.07;;;2.20;;
81026;SDS011;70506;49.320;8.446;2023-07-22T17:33:36;6.90;;;2.05;;
81026;SDS011;70506;49.320;8.446;2023-07-22T17:36:02;4.22;;;2.10;;
81026;SDS011;70506;49.320;8.446;2023-07-22T17:38:28;3.97;;;2.37;;
81026;SDS011;70506;49.320;8.446;2023-07-22T17:40:53;3.37;;;2.00;;
81026;SDS011;70506;49.320;8.446;2023-07-22T17:43:18;3.53;;;2.20;;
81026;SDS011;70506;49.320;8.446;2023-07-22T17:45:44;6.23;;;2.17;;
81026;SDS011;70506;49.320;8.446;2023-07-22T17:48:09;5.22;;;2.17;;
81026;SDS011;70506;49.320;8.446;2023-07-22T17:50:34;5.47;;;2.23;;
81026;SDS011;70506;49.320;8.446;2023-07-22T17:53:00;3.50;;;2.30;;
81026;SDS011;70506;49.320;8.446;2023-07-22T17:55:25;5.53;;;1.90;;
81026;SDS011;70506;49.320;8.446;2023-07-22T17:57:51;10.98;;;2.13;;